Time;durP1;ratioP1;P1;durP2;ratioP2;P2;SDS_P1;SDS_P2;PMS_P1;PMS_P2;Temp;Humidity;BMP_temperature;BMP_pressure;BME280_temperature;BME280_humidity;BME280_pressure;Samples;Min_cycle;Max_cycle;Signal;HPM_P1;HPM_P2
2021/07/20 00:03:42;;;;;;;16.30;8.73;;;;;;;20.73;60.12;98910.80;260854;1095;115066;-68
2021/07/20 00:08:51;;;;;;;14.27;8.10;;;;;;;20.63;60.64;98908.22;260927;1095;115183;-72
2021/07/20 00:14:03;;;;;;;14.30;9.03;;;;;;;20.55;61.06;98902.78;260801;1095;115030;-71
2021/07/20 00:19:13;;;;;;;12.43;7.90;;;;;;;20.50;61.37;98899.67;261163;1095;115056;-70
2021/07/20 00:24:19;;;;;;;14.75;8.40;;;;;;;20.48;61.68;98904.38;260809;1094;114805;-70
2021/07/20 00:29:24;;;;;;;16.60;8.90;;;;;;;20.46;61.90;98909.13;260732;1096;115025;-71
2021/07/20 00:34:29;;;;;;;17.65;9.10;;;;;;;20.43;62.02;98902.17;260707;1095;114368;-72
2021/07/20 00:39:46;;;;;;;13.50;9.07;;;;;;;20.36;62.22;98901.13;261176;1095;114480;-70
2021/07/20 00:44:53;;;;;;;15.37;8.83;;;;;;;20.29;62.29;98905.48;260601;1096;114569;-67
2021/07/20 00:50:00;;;;;;;13.77;8.60;;;;;;;20.20;62.57;98898.33;260665;1095;115233;-69
2021/07/20 00:55:11;;;;;;;15.50;8.40;;;;;;;20.16;62.56;98902.36;260980;1095;114625;-72
2021/07/20 01:00:24;;;;;;;22.60;9.10;;;;;;;20.13;63.29;98900.82;260947;1096;115411;-71
2021/07/20 01:05:40;;;;;;;17.20;9.87;;;;;;;20.12;63.22;98898.29;261198;1096;115037;-72
2021/07/20 01:10:50;;;;;;;14.80;9.13;;;;;;;20.08;63.22;98904.01;260749;1096;114771;-70
2021/07/20 01:16:09;;;;;;;14.63;8.97;;;;;;;20.01;63.67;98902.95;260928;1096;114820;-70
2021/07/20 01:21:17;;;;;;;14.17;8.60;;;;;;;19.95;63.69;98906.28;260825;1096;114971;-71
2021/07/20 01:26:29;;;;;;;17.70;8.73;;;;;;;19.91;63.84;98901.36;260755;1096;114678;-71
2021/07/20 01:31:41;;;;;;;15.13;8.70;;;;;;;19.84;63.99;98911.95;260915;1096;115636;-71
2021/07/20 01:36:52;;;;;;;17.25;9.85;;;;;;;19.83;64.43;98910.23;260760;1095;114809;-71
2021/07/20 01:42:01;;;;;;;17.27;9.93;;;;;;;19.79;64.31;98901.59;261017;1095;114997;-72
2021/07/20 01:47:11;;;;;;;13.38;8.10;;;;;;;19.73;64.37;98907.63;260673;1095;115126;-69
2021/07/20 01:52:18;;;;;;;13.63;8.47;;;;;;;19.70;64.70;98907.09;262560;1095;115022;-69
2021/07/20 01:57:26;;;;;;;14.63;9.17;;;;;;;19.69;65.03;98911.64;261045;1094;114851;-71
2021/07/20 02:03:16;;;;;;;15.80;9.15;;;;;;;19.67;65.02;98910.97;262113;1095;115010;-67
2021/07/20 02:08:29;;;;;;;16.17;9.90;;;;;;;19.60;65.20;98924.21;262781;1095;114994;-74
2021/07/20 02:13:43;;;;;;;15.97;9.43;;;;;;;19.53;64.79;98924.97;262161;1096;114966;-71
2021/07/20 02:19:18;;;;;;;14.70;7.80;;;;;;;19.51;65.22;98932.39;262815;1096;115274;-70
2021/07/20 02:24:51;;;;;;;16.77;9.73;;;;;;;19.52;65.50;98932.22;261677;1096;114909;-69
2021/07/20 02:29:59;;;;;;;15.93;9.90;;;;;;;19.52;65.81;98936.77;262676;1096;115300;-73
2021/07/20 02:35:06;;;;;;;14.80;8.93;;;;;;;19.50;66.08;98945.05;261601;1096;114804;-71
2021/07/20 02:40:13;;;;;;;13.87;8.77;;;;;;;19.52;65.72;98947.57;261483;1096;114905;-71
2021/07/20 02:45:19;;;;;;;13.43;8.20;;;;;;;19.51;65.98;98945.88;262324;1096;115247;-72
2021/07/20 02:50:24;;;;;;;18.50;9.93;;;;;;;19.53;66.18;98943.86;261129;1095;114632;-76
2021/07/20 02:56:11;;;;;;;14.40;9.08;;;;;;;19.55;66.02;98960.77;262349;1095;114761;-76
2021/07/20 03:01:27;;;;;;;13.23;9.50;;;;;;;19.53;65.90;98955.53;262354;1096;115355;-72
2021/07/20 03:06:33;;;;;;;13.63;9.07;;;;;;;19.49;66.42;98962.22;262842;1096;115038;-74
2021/07/20 03:11:41;;;;;;;14.83;9.30;;;;;;;19.47;66.40;98952.60;262738;1094;115228;-73
2021/07/20 03:16:47;;;;;;;15.00;9.97;;;;;;;19.47;66.46;98956.14;262615;1096;115077;-70
2021/07/20 03:21:55;;;;;;;15.88;9.55;;;;;;;19.52;66.56;98959.22;262279;1095;115320;-70
2021/07/20 03:27:01;;;;;;;19.70;10.60;;;;;;;19.46;66.49;98954.42;262337;1096;114481;-78
2021/07/20 03:32:15;;;;;;;17.73;9.50;;;;;;;19.44;66.19;98951.05;262770;1095;115390;-69
2021/07/20 03:37:21;;;;;;;14.50;8.93;;;;;;;19.47;66.51;98948.05;262550;1096;114833;-69
2021/07/20 03:42:26;;;;;;;16.25;9.70;;;;;;;19.49;66.65;98951.42;262787;1096;114662;-68
2021/07/20 03:47:30;;;;;;;;;;;;;;;19.47;66.64;98944.50;262652;1095;115088;-71
2021/07/20 03:52:36;;;;;;;15.10;10.43;;;;;;;19.46;66.61;98949.02;262801;1096;101763;-73
2021/07/20 03:57:41;;;;;;;15.97;9.70;;;;;;;19.40;66.65;98955.06;262766;1095;115229;-73
2021/07/20 04:02:58;;;;;;;13.00;8.87;;;;;;;19.34;66.56;98961.06;262776;1096;115191;-72
2021/07/20 04:08:25;;;;;;;43.00;32.40;;;;;;;19.93;69.12;98962.30;262911;1095;115813;-72
2021/07/20 04:13:32;;;;;;;38.40;25.43;;;;;;;20.73;68.74;98943.25;262770;1095;115514;-74
2021/07/20 04:18:59;;;;;;;18.90;12.27;;;;;;;20.83;66.37;98943.97;262835;1095;116700;-72
2021/07/20 04:24:27;;;;;;;63.20;55.10;;;;;;;21.06;67.15;98938.81;262887;1095;115005;-67
2021/07/20 04:29:32;;;;;;;35.80;28.03;;;;;;;21.37;66.70;98940.95;260758;1095;114815;-74
2021/07/20 04:34:37;;;;;;;23.57;16.47;;;;;;;21.69;66.45;98932.00;262149;1095;114793;-75
2021/07/20 04:39:56;;;;;;;14.00;9.53;;;;;;;21.58;64.55;98938.61;262753;1096;114987;-74
2021/07/20 04:45:03;;;;;;;18.50;10.30;;;;;;;21.08;63.82;98936.77;262715;1096;115334;-71
2021/07/20 04:50:13;;;;;;;16.10;9.90;;;;;;;20.64;63.99;98944.22;262726;1096;114696;-71
2021/07/20 04:55:18;;;;;;;16.40;9.37;;;;;;;20.30;65.00;98943.15;259970;1095;115151;-69
2021/07/20 05:00:22;;;;;;;18.03;9.50;;;;;;;20.15;64.92;98949.31;261297;1096;115029;-69
2021/07/20 05:05:29;;;;;;;;;;;;;;;19.99;65.00;98958.14;262641;1095;114956;-70
2021/07/20 05:10:36;;;;;;;16.83;10.33;;;;;;;19.83;65.35;98962.39;262688;1096;102707;-70
2021/07/20 05:15:54;;;;;;;14.83;9.63;;;;;;;19.69;65.53;98970.20;262741;1095;115108;-69
2021/07/20 05:20:59;;;;;;;12.77;8.60;;;;;;;19.62;66.10;98972.64;262728;1095;115442;-70
2021/07/20 05:26:11;;;;;;;12.17;8.33;;;;;;;19.59;66.22;98968.39;262376;1096;115454;-67
2021/07/20 05:31:17;;;;;;;15.10;9.77;;;;;;;19.56;66.75;98976.80;262523;1095;115466;-68
2021/07/20 05:36:21;;;;;;;14.07;8.70;;;;;;;19.67;66.65;98978.47;262294;1095;115558;-72
2021/07/20 05:41:28;;;;;;;14.23;8.97;;;;;;;19.61;66.40;98973.66;260837;1095;115197;-70
2021/07/20 05:46:34;;;;;;;17.07;8.67;;;;;;;19.57;66.64;98989.31;262657;1096;115592;-70
2021/07/20 05:51:40;;;;;;;14.25;8.58;;;;;;;19.58;66.65;98976.66;262554;1094;115135;-70
2021/07/20 05:56:48;;;;;;;13.37;9.07;;;;;;;19.53;66.23;98985.23;262720;1095;115086;-70
2021/07/20 06:02:12;;;;;;;13.20;9.07;;;;;;;19.50;66.94;98990.93;262782;1096;115108;-70
2021/07/20 06:07:16;;;;;;;12.93;8.47;;;;;;;19.46;67.30;98985.97;262911;1096;115079;-71
2021/07/20 06:12:21;;;;;;;13.55;8.48;;;;;;;19.47;67.24;98987.69;262636;1096;114986;-71
2021/07/20 06:17:25;;;;;;;13.57;7.90;;;;;;;19.42;66.97;98990.83;261800;1095;115450;-71
2021/07/20 06:22:34;;;;;;;10.38;7.23;;;;;;;19.42;66.92;98990.83;262747;1096;115323;-68
2021/07/20 06:27:41;;;;;;;16.53;7.97;;;;;;;19.40;67.11;99000.10;262679;1096;115377;-71
2021/07/20 06:32:45;;;;;;;15.68;7.60;;;;;;;19.34;66.78;99007.79;262912;1095;115095;-70
2021/07/20 06:37:49;;;;;;;;;;;;;;;19.26;67.16;99014.93;262654;1095;115055;-69
2021/07/20 06:42:55;;;;;;;12.15;7.50;;;;;;;19.19;67.24;99028.20;261931;1096;101043;-72
2021/07/20 06:48:02;;;;;;;15.83;7.50;;;;;;;19.19;67.17;99024.63;261771;1096;115246;-70
2021/07/20 06:53:07;;;;;;;9.88;6.15;;;;;;;19.17;67.02;99027.49;262832;1096;115572;-68
2021/07/20 06:58:13;;;;;;;12.10;6.88;;;;;;;19.14;67.13;99025.94;262677;1096;117993;-69
2021/07/20 07:03:19;;;;;;;12.83;7.00;;;;;;;19.14;67.20;99019.70;262410;1095;115189;-69
2021/07/20 07:08:25;;;;;;;11.40;6.75;;;;;;;19.15;67.56;99016.83;262882;1095;115328;-69
2021/07/20 07:13:32;;;;;;;11.37;6.23;;;;;;;19.23;67.74;99024.20;262571;1095;115379;-71
2021/07/20 07:18:37;;;;;;;12.97;6.70;;;;;;;19.27;67.46;99022.89;262572;1096;114704;-70
2021/07/20 07:23:43;;;;;;;15.60;7.17;;;;;;;19.27;67.50;99025.59;262519;1096;114939;-71
2021/07/20 07:28:51;;;;;;;12.33;6.60;;;;;;;19.25;67.50;99030.27;262219;1094;114776;-69
2021/07/20 07:33:55;;;;;;;13.53;7.45;;;;;;;19.25;67.52;99026.73;261934;1096;114912;-71
2021/07/20 07:39:02;;;;;;;13.68;6.55;;;;;;;19.30;68.03;99035.24;262822;1095;115530;-70
2021/07/20 07:44:07;;;;;;;13.85;7.70;;;;;;;19.32;67.79;99027.83;262717;1095;115361;-70
2021/07/20 07:49:11;;;;;;;;;;;;;;;19.34;67.63;99026.69;262725;1096;115533;-69
2021/07/20 07:54:16;;;;;;;12.03;7.73;;;;;;;19.30;67.83;99035.24;262411;1095;102225;-69
2021/07/20 07:59:23;;;;;;;14.23;8.25;;;;;;;19.31;67.49;99031.53;262775;1096;116648;-69
2021/07/20 08:04:28;;;;;;;12.67;8.00;;;;;;;19.30;67.66;99029.84;262817;1096;115078;-69
2021/07/20 08:09:33;;;;;;;11.20;8.10;;;;;;;19.37;67.70;99039.03;262438;1096;115296;-70
2021/07/20 08:14:37;;;;;;;10.85;8.25;;;;;;;19.40;68.07;99030.64;262366;1096;115049;-70
2021/07/20 08:19:44;;;;;;;16.03;8.90;;;;;;;19.41;67.80;99043.12;262361;1096;115334;-70
2021/07/20 08:24:57;;;;;;;14.10;8.88;;;;;;;19.47;68.07;99042.52;262413;1096;114888;-70
2021/07/20 08:30:03;;;;;;;14.65;8.33;;;;;;;19.46;67.65;99045.35;262528;1095;115924;-68
2021/07/20 08:35:12;;;;;;;26.63;9.47;;;;;;;19.51;67.22;99049.31;262600;1095;115992;-69
2021/07/20 08:40:50;;;;;;;22.60;9.87;;;;;;;19.53;67.29;99041.92;262879;1096;115038;-67
2021/07/20 08:46:18;;;;;;;18.13;9.33;;;;;;;19.55;67.63;99047.15;261962;1095;114541;-68
2021/07/20 08:51:43;;;;;;;19.80;11.40;;;;;;;19.58;67.39;99046.85;262977;1096;115169;-66
2021/07/20 08:56:47;;;;;;;20.95;11.95;;;;;;;19.61;67.52;99043.84;262987;1095;115172;-69
2021/07/20 09:02:03;;;;;;;20.70;12.38;;;;;;;19.65;67.70;99052.52;262906;1095;116032;-68
2021/07/20 09:07:11;;;;;;;24.70;12.80;;;;;;;19.75;67.26;99056.85;262080;1096;115380;-68
2021/07/20 09:12:25;;;;;;;27.80;13.57;;;;;;;19.73;67.17;99049.89;262695;1095;115245;-69
2021/07/20 09:18:00;;;;;;;19.18;12.43;;;;;;;19.62;67.11;99057.18;263067;1096;116099;-68
2021/07/20 09:23:14;;;;;;;304.37;220.47;;;;;;;19.64;67.09;99058.94;262925;1096;116921;-69
2021/07/20 09:28:30;;;;;;;20.67;12.50;;;;;;;19.61;66.89;99055.49;262643;1095;115607;-69
2021/07/20 09:33:53;;;;;;;19.63;11.23;;;;;;;19.61;67.33;99052.80;262682;1095;115073;-69
2021/07/20 09:38:58;;;;;;;20.80;12.70;;;;;;;19.61;67.11;99054.65;262687;1096;115237;-70
2021/07/20 09:44:07;;;;;;;15.65;11.05;;;;;;;19.63;67.26;99055.36;262635;1095;115648;-67
2021/07/20 09:49:52;;;;;;;15.60;11.03;;;;;;;19.67;67.47;99056.78;262655;1095;115894;-69
2021/07/20 09:54:59;;;;;;;;;;;;;;;19.72;67.40;99048.20;263002;1095;114923;-71
2021/07/20 10:00:14;;;;;;;13.60;9.77;;;;;;;19.78;67.49;99050.30;262984;1095;101938;-69
2021/07/20 10:05:25;;;;;;;19.33;10.77;;;;;;;19.87;67.49;99037.70;262592;1095;115987;-68
2021/07/20 10:10:43;;;;;;;20.70;11.65;;;;;;;19.92;67.34;99036.25;262575;1096;115529;-67
2021/07/20 10:16:02;;;;;;;17.30;10.60;;;;;;;19.92;67.55;99033.55;262795;1095;116354;-69
2021/07/20 10:21:10;;;;;;;17.73;9.70;;;;;;;19.91;67.17;99033.72;262820;1095;115327;-71
2021/07/20 10:26:18;;;;;;;16.97;9.37;;;;;;;19.97;67.26;99033.95;262542;1096;118312;-73
2021/07/20 10:31:59;;;;;;;16.53;11.57;;;;;;;20.09;67.55;99029.98;262331;1096;115188;-70
2021/07/20 10:37:10;;;;;;;16.13;10.40;;;;;;;20.15;67.33;99028.52;262921;1095;116636;-69
2021/07/20 10:42:25;;;;;;;15.87;10.80;;;;;;;20.21;66.88;99022.50;262632;1096;115229;-68
2021/07/20 10:47:37;;;;;;;17.97;11.57;;;;;;;20.22;66.86;99012.53;262627;1095;115186;-71
2021/07/20 10:52:55;;;;;;;17.87;9.83;;;;;;;20.29;66.73;99014.44;262513;1095;115963;-69
2021/07/20 10:58:27;;;;;;;15.47;9.97;;;;;;;20.41;66.45;99020.42;262737;1096;114927;-71
2021/07/20 11:04:00;;;;;;;15.45;9.95;;;;;;;20.52;66.72;99012.09;262511;1096;115906;-68
2021/07/20 11:09:12;;;;;;;16.17;9.77;;;;;;;20.61;66.33;99014.84;262518;1095;115985;-68
2021/07/20 11:14:20;;;;;;;17.00;9.90;;;;;;;20.70;66.17;99009.33;262667;1096;116880;-71
2021/07/20 11:19:26;;;;;;;17.17;9.83;;;;;;;20.81;65.96;99010.90;262679;1095;115099;-69
2021/07/20 11:24:30;;;;;;;13.57;8.70;;;;;;;20.83;65.34;99017.02;262441;1095;114874;-68
2021/07/20 11:29:35;;;;;;;273.73;180.10;;;;;;;20.90;65.83;99012.64;262695;1095;115163;-70
2021/07/20 11:34:42;;;;;;;25.03;16.87;;;;;;;21.27;66.59;99006.03;262565;1096;117422;-69
2021/07/20 11:39:54;;;;;;;21.33;13.03;;;;;;;21.53;66.08;99008.66;262506;1095;116164;-67
2021/07/20 11:45:02;;;;;;;17.67;10.33;;;;;;;21.71;65.00;99003.13;262674;1096;115300;-67
2021/07/20 11:50:09;;;;;;;16.13;9.47;;;;;;;21.77;64.62;98996.17;262612;1095;115997;-71
2021/07/20 11:55:31;;;;;;;13.97;9.57;;;;;;;21.77;64.40;98991.59;262829;1096;114502;-69
2021/07/20 12:00:51;;;;;;;18.80;9.33;;;;;;;21.77;64.42;98991.59;262782;1095;115538;-70
2021/07/20 12:06:21;;;;;;;18.47;12.87;;;;;;;21.86;64.06;98984.33;261712;1095;115449;-72
2021/07/20 12:11:35;;;;;;;15.03;10.03;;;;;;;21.92;63.85;98984.50;262688;1095;115287;-71
2021/07/20 12:16:43;;;;;;;14.47;10.30;;;;;;;21.84;62.88;98987.22;262393;1096;115318;-70
2021/07/20 12:21:49;;;;;;;44.10;33.87;;;;;;;21.78;62.87;98970.80;261703;1095;115053;-70
2021/07/20 12:26:53;;;;;;;14.07;9.90;;;;;;;21.79;62.74;98973.32;262516;1096;115209;-71
2021/07/20 12:32:00;;;;;;;17.33;11.83;;;;;;;21.80;62.79;98972.30;262666;1096;114966;-69
2021/07/20 12:37:05;;;;;;;16.43;11.57;;;;;;;21.87;62.69;98959.77;262557;1095;115401;-71
2021/07/20 12:42:10;;;;;;;20.45;14.60;;;;;;;22.08;63.27;98955.69;262783;1096;115152;-70
2021/07/20 12:47:18;;;;;;;17.83;10.68;;;;;;;22.35;63.10;98955.38;262490;1095;116301;-69
2021/07/20 12:52:22;;;;;;;19.67;10.47;;;;;;;22.39;62.46;98947.73;262641;1096;115591;-69
2021/07/20 12:57:25;;;;;;;15.58;10.20;;;;;;;22.53;62.67;98932.61;262618;1096;115477;-67
2021/07/20 13:02:51;;;;;;;12.97;9.33;;;;;;;22.60;61.79;98933.60;260767;1095;115380;-74
2021/07/20 13:08:00;;;;;;;15.70;8.97;;;;;;;22.59;61.89;98943.61;261978;1096;114854;-71
2021/07/20 13:13:06;;;;;;;13.20;8.33;;;;;;;22.70;61.64;98944.26;262699;1096;116223;-71
2021/07/20 13:18:12;;;;;;;13.57;8.00;;;;;;;22.77;60.98;98943.38;262745;1095;115506;-71
2021/07/20 13:23:16;;;;;;;13.87;8.77;;;;;;;22.87;61.53;98937.73;262527;1095;115314;-70
2021/07/20 13:28:22;;;;;;;13.65;8.28;;;;;;;22.93;61.04;98938.91;262545;1096;114945;-72
2021/07/20 13:33:26;;;;;;;14.23;8.70;;;;;;;22.91;60.60;98925.50;262834;1096;115507;-71
2021/07/20 13:38:32;;;;;;;14.08;8.18;;;;;;;22.90;60.52;98924.66;262747;1096;115487;-71
2021/07/20 13:43:36;;;;;;;11.03;7.97;;;;;;;22.87;60.60;98927.73;262591;1095;115269;-72
2021/07/20 13:48:45;;;;;;;12.20;8.20;;;;;;;22.89;59.91;98927.53;262620;1096;116491;-71
2021/07/20 13:53:56;;;;;;;12.37;7.50;;;;;;;22.85;60.23;98929.75;262732;1095;114982;-71
2021/07/20 13:59:02;;;;;;;12.17;7.60;;;;;;;22.89;59.65;98922.98;262655;1095;115233;-72
2021/07/20 14:04:06;;;;;;;13.28;8.30;;;;;;;22.89;59.58;98925.69;262599;1095;115371;-71
2021/07/20 14:09:13;;;;;;;10.67;7.43;;;;;;;22.97;59.85;98938.41;262724;1095;115135;-72
2021/07/20 14:14:18;;;;;;;9.10;7.07;;;;;;;22.91;58.75;98937.20;262601;1096;115245;-71
2021/07/20 14:19:23;;;;;;;10.77;7.80;;;;;;;22.80;58.82;98928.61;260794;1095;114518;-71
2021/07/20 14:24:28;;;;;;;13.50;7.80;;;;;;;22.79;58.79;98935.91;262658;1096;115567;-71
2021/07/20 14:29:32;;;;;;;12.43;7.47;;;;;;;22.78;58.61;98939.63;262522;1096;115503;-71
2021/07/20 14:34:49;;;;;;;12.15;7.90;;;;;;;22.75;58.48;98934.55;262952;1095;115572;-71
2021/07/20 14:39:56;;;;;;;11.43;7.53;;;;;;;22.75;58.38;98945.41;262923;1095;114779;-74
2021/07/20 14:45:08;;;;;;;14.90;7.37;;;;;;;22.72;58.30;98945.75;262559;1095;115246;-70
2021/07/20 14:50:30;;;;;;;12.17;7.10;;;;;;;22.73;57.87;98936.61;262984;1096;115120;-70
2021/07/20 14:55:42;;;;;;;15.97;12.37;;;;;;;22.77;57.28;98940.66;263040;1096;114887;-72
2021/07/20 15:00:57;;;;;;;13.07;7.63;;;;;;;22.74;56.85;98941.01;262735;1095;116397;-69
2021/07/20 15:06:11;;;;;;;14.03;7.93;;;;;;;22.60;57.19;98952.59;262893;1096;116186;-73
2021/07/20 15:11:23;;;;;;;77.40;53.75;;;;;;;22.40;57.55;98955.69;260991;1095;114956;-70
2021/07/20 15:16:32;;;;;;;15.93;9.50;;;;;;;22.18;57.28;98959.97;262209;1094;115271;-69
2021/07/20 15:21:44;;;;;;;19.43;9.93;;;;;;;21.94;57.63;98962.64;260806;1096;115380;-72
2021/07/20 15:26:51;;;;;;;17.63;9.67;;;;;;;21.79;58.05;98962.48;261858;1096;114915;-78
2021/07/20 15:31:56;;;;;;;18.63;9.47;;;;;;;21.68;58.48;98960.12;262696;1095;115207;-74
2021/07/20 15:37:07;;;;;;;13.23;9.40;;;;;;;21.59;58.50;98959.25;262758;1095;114692;-72
2021/07/20 15:42:12;;;;;;;13.57;8.40;;;;;;;21.54;58.79;98958.91;262506;1095;114928;-74
2021/07/20 15:47:40;;;;;;;14.73;8.65;;;;;;;21.52;58.94;98965.51;262632;1096;115154;-76
2021/07/20 15:52:46;;;;;;;12.80;9.00;;;;;;;21.43;59.08;98960.09;260457;1096;115128;-74
2021/07/20 15:57:52;;;;;;;13.57;8.87;;;;;;;21.41;59.42;98962.11;262851;1096;115224;-74
2021/07/20 16:02:56;;;;;;;13.80;8.10;;;;;;;21.37;59.52;98963.45;262733;1096;114968;-73
2021/07/20 16:08:00;;;;;;;13.23;8.10;;;;;;;21.36;59.37;98975.27;261731;1096;114992;-77
2021/07/20 16:13:05;;;;;;;11.90;7.65;;;;;;;21.31;59.65;98977.61;262564;1096;114598;-75
2021/07/20 16:18:12;;;;;;;12.40;8.35;;;;;;;21.25;59.74;98973.70;262556;1095;115614;-74
2021/07/20 16:23:19;;;;;;;13.70;8.33;;;;;;;21.20;59.61;98980.64;262767;1094;115074;-75
2021/07/20 16:28:24;;;;;;;12.50;7.87;;;;;;;21.18;60.04;98975.38;262774;1095;115389;-76
2021/07/20 16:33:29;;;;;;;17.20;8.53;;;;;;;21.12;59.96;98976.02;262569;1095;115045;-74
2021/07/20 16:38:33;;;;;;;17.18;8.78;;;;;;;21.12;60.23;98964.35;261645;1096;115245;-75
2021/07/20 16:43:39;;;;;;;15.00;8.37;;;;;;;21.15;60.22;98970.28;262724;1096;115161;-71
2021/07/20 16:48:43;;;;;;;16.10;7.50;;;;;;;21.08;60.03;98971.11;262873;1095;115181;-69
2021/07/20 16:53:53;;;;;;;97.30;71.13;;;;;;;21.05;60.12;98968.73;262340;1096;115399;-72
2021/07/20 16:59:00;;;;;;;21.67;13.07;;;;;;;21.03;60.20;98977.03;262450;1095;115334;-73
2021/07/20 17:04:08;;;;;;;14.80;8.38;;;;;;;20.97;59.93;98985.79;262698;1096;115422;-73
2021/07/20 17:09:13;;;;;;;14.20;8.80;;;;;;;20.85;60.24;98987.08;261550;1096;114776;-71
2021/07/20 17:14:19;;;;;;;23.13;14.33;;;;;;;20.74;60.18;98990.92;260931;1096;114686;-72
2021/07/20 17:19:39;;;;;;;15.73;9.00;;;;;;;20.72;59.99;98982.11;261299;1096;115004;-68
2021/07/20 17:25:11;;;;;;;16.80;9.70;;;;;;;20.59;60.26;98987.13;261295;1096;115398;-69
2021/07/20 17:30:38;;;;;;;190.47;146.63;;;;;;;20.52;60.60;98985.06;261600;1096;115497;-69
2021/07/20 17:38:39;;;;;;;20.52;11.25;;;;;;;20.44;60.60;99003.04;262605;1091;103014;-70
2021/07/20 17:43:48;;;;;;;13.37;8.70;;;;;;;20.42;61.01;98997.81;261331;1093;115608;-69
2021/07/20 17:48:59;;;;;;;16.97;9.13;;;;;;;20.40;60.66;99001.67;261244;1092;114823;-69
2021/07/20 17:54:05;;;;;;;14.40;9.13;;;;;;;20.40;60.95;98996.27;263159;1092;114465;-69
2021/07/20 17:59:08;;;;;;;13.43;9.23;;;;;;;20.36;60.81;98998.44;263260;1092;114686;-69
2021/07/20 18:04:17;;;;;;;16.30;10.53;;;;;;;20.32;61.08;98999.77;263322;1092;115738;-70
2021/07/20 18:09:21;;;;;;;16.70;10.50;;;;;;;20.31;61.00;99003.45;262260;1093;114729;-68
2021/07/20 18:14:25;;;;;;;17.05;10.13;;;;;;;20.25;61.28;99004.11;263098;1093;114916;-71
2021/07/20 18:19:28;;;;;;;19.28;10.25;;;;;;;20.17;61.46;99022.95;262984;1092;114891;-68
2021/07/20 18:24:32;;;;;;;17.30;10.88;;;;;;;20.22;62.00;99037.70;262992;1092;114662;-71
2021/07/20 18:29:36;;;;;;;18.60;10.55;;;;;;;20.36;62.33;99040.84;262943;1093;115435;-69
2021/07/20 18:34:40;;;;;;;17.90;9.63;;;;;;;20.37;62.43;99048.78;263251;1093;115242;-70
2021/07/20 18:39:43;;;;;;;17.05;9.68;;;;;;;20.46;62.21;99053.25;262709;1093;114729;-72
2021/07/20 18:44:47;;;;;;;90.53;69.33;;;;;;;20.63;63.23;99050.70;263093;1094;115465;-70
2021/07/20 18:49:50;;;;;;;19.08;10.45;;;;;;;20.63;62.03;99046.13;263127;1093;114913;-67
2021/07/20 18:54:54;;;;;;;16.95;10.50;;;;;;;20.32;61.84;99053.83;262932;1092;115506;-70
2021/07/20 18:59:57;;;;;;;17.63;9.65;;;;;;;19.97;61.94;99062.79;263100;1093;115151;-69
2021/07/20 19:05:03;;;;;;;13.58;8.55;;;;;;;19.73;62.47;99060.70;262279;1091;114926;-70
2021/07/20 19:10:06;;;;;;;15.63;8.97;;;;;;;19.58;62.82;99065.75;261656;1093;115301;-70
2021/07/20 19:15:10;;;;;;;19.28;11.15;;;;;;;19.41;63.05;99064.71;262720;1092;114940;-71
2021/07/20 19:20:14;;;;;;;17.58;12.45;;;;;;;19.28;63.78;99075.85;261316;1093;115300;-71
2021/07/20 19:25:18;;;;;;;18.73;12.35;;;;;;;19.16;64.09;99082.46;261935;1093;115664;-71
2021/07/20 19:30:22;;;;;;;21.60;12.00;;;;;;;19.02;63.97;99078.41;262940;1091;114596;-70
2021/07/20 19:35:26;;;;;;;15.03;10.37;;;;;;;18.90;64.24;99083.11;263111;1092;114608;-71
2021/07/20 19:40:30;;;;;;;17.87;10.63;;;;;;;18.82;64.58;99085.70;261107;1092;115456;-70
2021/07/20 19:45:34;;;;;;;19.05;11.45;;;;;;;18.79;64.85;99093.23;263161;1091;114938;-70
2021/07/20 19:50:38;;;;;;;19.60;12.53;;;;;;;18.72;65.04;99090.27;262699;1093;114973;-70
2021/07/20 19:55:42;;;;;;;21.55;11.38;;;;;;;18.68;64.99;99084.30;261005;1093;115669;-71
2021/07/20 20:00:47;;;;;;;17.50;12.73;;;;;;;18.62;65.35;99090.26;263115;1093;115450;-72
2021/07/20 20:05:51;;;;;;;161.93;110.00;;;;;;;18.61;65.39;99087.69;262654;1093;116411;-70
2021/07/20 20:10:54;;;;;;;15.77;11.47;;;;;;;18.64;65.61;99087.41;261608;1093;115204;-74
2021/07/20 20:15:58;;;;;;;19.40;11.90;;;;;;;18.66;65.82;99085.42;263255;1093;115195;-72
2021/07/20 20:21:02;;;;;;;19.67;13.17;;;;;;;18.61;66.08;99083.17;262935;1093;114958;-73
2021/07/20 20:26:05;;;;;;;18.58;12.65;;;;;;;18.61;66.16;99090.39;263242;1092;115190;-70
2021/07/20 20:31:09;;;;;;;20.53;11.47;;;;;;;18.62;66.21;99089.41;262159;1093;115034;-73
2021/07/20 20:36:13;;;;;;;17.93;11.48;;;;;;;18.63;65.94;99083.02;261806;1092;115100;-71
2021/07/20 20:41:17;;;;;;;16.40;11.47;;;;;;;18.71;66.45;99087.67;261635;1092;114931;-71
2021/07/20 20:46:20;;;;;;;20.75;12.53;;;;;;;18.73;66.20;99097.36;261838;1093;116504;-70
2021/07/20 20:51:24;;;;;;;18.40;11.57;;;;;;;18.72;66.03;99100.22;263153;1093;114824;-72
2021/07/20 20:56:28;;;;;;;19.05;12.28;;;;;;;18.70;66.45;99096.77;262721;1092;115170;-70
2021/07/20 21:01:32;;;;;;;20.30;11.67;;;;;;;18.70;66.67;99100.30;261724;1092;116431;-69
2021/07/20 21:06:36;;;;;;;18.88;10.58;;;;;;;18.71;66.61;99099.30;263114;1093;115613;-70
2021/07/20 21:11:40;;;;;;;19.13;11.23;;;;;;;18.73;66.68;99097.36;263162;1093;114899;-69
2021/07/20 21:16:44;;;;;;;18.65;12.30;;;;;;;18.71;66.75;99091.22;263275;1092;115001;-72
2021/07/20 21:21:48;;;;;;;15.83;11.80;;;;;;;18.71;66.88;99103.85;262570;1093;115126;-71
2021/07/20 21:26:51;;;;;;;16.93;10.50;;;;;;;18.67;67.01;99096.05;262560;1092;114552;-70
2021/07/20 21:31:55;;;;;;;15.27;10.50;;;;;;;18.66;66.63;99098.91;261035;1092;115104;-69
2021/07/20 21:36:59;;;;;;;14.30;10.00;;;;;;;18.68;67.18;99097.77;262523;1092;115879;-70
2021/07/20 21:42:03;;;;;;;18.43;11.20;;;;;;;18.66;66.93;99099.75;262701;1092;114946;-71
2021/07/20 21:47:06;;;;;;;21.33;12.45;;;;;;;18.63;67.22;99107.28;263157;1092;115246;-71
2021/07/20 21:52:10;;;;;;;18.88;11.90;;;;;;;18.63;67.19;99109.97;263205;1092;115269;-71
2021/07/20 21:57:15;;;;;;;23.68;12.33;;;;;;;18.61;67.17;99109.26;262658;1092;115721;-71
2021/07/20 22:02:19;;;;;;;23.30;11.18;;;;;;;18.62;67.46;99119.91;262297;1092;116279;-70
2021/07/20 22:07:25;;;;;;;19.67;12.17;;;;;;;18.65;67.96;99116.93;261570;1092;115265;-69
2021/07/20 22:12:28;;;;;;;19.60;11.67;;;;;;;18.67;67.36;99125.70;263102;1092;115067;-69
2021/07/20 22:17:32;;;;;;;20.13;12.20;;;;;;;18.67;67.09;99123.01;263175;1093;115423;-71
2021/07/20 22:22:40;;;;;;;23.05;11.23;;;;;;;18.66;67.40;99129.41;262993;1093;115662;-69
2021/07/20 22:27:55;;;;;;;17.50;10.27;;;;;;;18.67;67.32;99133.80;261513;1092;115048;-69
2021/07/20 22:33:09;;;;;;;17.63;11.03;;;;;;;18.70;67.31;99129.96;262125;1092;115216;-69
2021/07/20 22:38:15;;;;;;;22.88;11.28;;;;;;;18.74;67.46;99125.16;262764;1093;116315;-68
2021/07/20 22:43:21;;;;;;;16.83;10.48;;;;;;;18.73;67.29;99131.56;261524;1091;114640;-72
2021/07/20 22:48:27;;;;;;;17.80;11.17;;;;;;;18.69;67.57;99136.36;263179;1093;114680;-70
2021/07/20 22:53:31;;;;;;;17.73;10.57;;;;;;;18.67;67.30;99136.48;261955;1093;115418;-71
2021/07/20 22:58:37;;;;;;;15.77;9.17;;;;;;;18.68;66.95;99135.52;262625;1093;115110;-68
2021/07/20 23:03:41;;;;;;;18.58;9.48;;;;;;;18.71;67.29;99130.81;261943;1092;115420;-70
2021/07/20 23:08:45;;;;;;;14.38;9.10;;;;;;;18.68;67.22;99134.64;263185;1092;114709;-72
2021/07/20 23:13:48;;;;;;;15.93;8.77;;;;;;;18.67;66.92;99131.09;263204;1092;116384;-68
2021/07/20 23:18:52;;;;;;;13.83;8.27;;;;;;;18.65;66.97;99132.26;263129;1092;114942;-70
2021/07/20 23:23:56;;;;;;;11.00;7.07;;;;;;;18.61;66.77;99134.39;262524;1092;115068;-67